Yonder — PG9577 — position and weather

sailwx.info

Track history (hours):
 
Tides and Currents Weather Stations Pressure Air Temp Water Temp Dewpoint Dewpoint Depression Visibility Wind Speed Wind Dir Waves Ship Positions

Yonder

Last reported at 2017-Sep-07 12:07 UTC. Time now 2017-Sep-22 17:20 UTC.
Position N 37°55' E 023°01'.
Warning: this ship's position is 15 days out of date.

Length 20 m; draft 2.8 m.

Type: Sailing vessel. MMSI: 244130146.

Date/timePositionNaut miles runAvg speedWind from/ knotsBaromVisibWave heightAir tempDewpointWater temp
2017-Sep-07 12:07N 37°55' E 023°01'0 0.1
2017-Sep-07 11:50N 37°55' E 023°01'0 0.0
2017-Sep-07 11:27N 37°55' E 023°01'0 0.0
2017-Sep-07 11:00N 37°55' E 023°01'0 0.5
2017-Sep-07 10:30N 37°55' E 023°01'4 7.9
2017-Sep-07 10:00N 37°52' E 023°04'4 8.3
2017-Sep-07 09:30N 37°50' E 023°09'4 7.6
2017-Sep-07 09:00N 37°46' E 023°11'3 0.2
2017-Sep-06 16:35N 37°46' E 023°08'1 7.1
2017-Sep-06 16:30N 37°45' E 023°08'4 8.2
2017-Sep-06 16:00N 37°44' E 023°13'4 8.2
2017-Sep-06 15:30N 37°42' E 023°18'4 7.3
2017-Sep-06 15:00N 37°40' E 023°22'5 8.4
2017-Sep-06 14:28N 37°39' E 023°27'3 7.6
2017-Sep-06 14:01N 37°37' E 023°30'4 8.5
2017-Sep-06 13:30N 37°33' E 023°32'21 0.4
2017-Sep-04 15:26N 37°15' E 023°18'7 8.1
2017-Sep-04 14:34N 37°14' E 023°27'1 8.4
2017-Sep-04 14:29N 37°14' E 023°28'4 8.6
2017-Sep-04 14:00N 37°12' E 023°32'5 9.5
2017-Sep-04 13:30N 37°09' E 023°37'5 9.4
2017-Sep-04 13:01N 37°06' E 023°42'  
Track history (hours):
 
Tides and Currents Weather Stations Pressure Air Temp Water Temp Dewpoint Dewpoint Depression Visibility Wind Speed Wind Dir Waves Ship Positions

Yonder

Last reported at 2017-Sep-07 12:07 UTC. Time now 2017-Sep-22 17:20 UTC.
Position N 37°55' E 023°01'.
Warning: this ship's position is 15 days out of date.

Length 20 m; draft 2.8 m.

Type: Sailing vessel. MMSI: 244130146.

Date/timePositionNaut miles runAvg speedWind from/ knotsBaromVisibWave heightAir tempDewpointWater temp
2017-Sep-07 12:07N 37°55' E 023°01'0 0.1
2017-Sep-07 11:50N 37°55' E 023°01'0 0.0
2017-Sep-07 11:27N 37°55' E 023°01'0 0.0
2017-Sep-07 11:00N 37°55' E 023°01'0 0.5
2017-Sep-07 10:30N 37°55' E 023°01'4 7.9
2017-Sep-07 10:00N 37°52' E 023°04'4 8.3
2017-Sep-07 09:30N 37°50' E 023°09'4 7.6
2017-Sep-07 09:00N 37°46' E 023°11'3 0.2
2017-Sep-06 16:35N 37°46' E 023°08'1 7.1
2017-Sep-06 16:30N 37°45' E 023°08'4 8.2
2017-Sep-06 16:00N 37°44' E 023°13'4 8.2
2017-Sep-06 15:30N 37°42' E 023°18'4 7.3
2017-Sep-06 15:00N 37°40' E 023°22'5 8.4
2017-Sep-06 14:28N 37°39' E 023°27'3 7.6
2017-Sep-06 14:01N 37°37' E 023°30'4 8.5
2017-Sep-06 13:30N 37°33' E 023°32'21 0.4
2017-Sep-04 15:26N 37°15' E 023°18'7 8.1
2017-Sep-04 14:34N 37°14' E 023°27'1 8.4
2017-Sep-04 14:29N 37°14' E 023°28'4 8.6
2017-Sep-04 14:00N 37°12' E 023°32'5 9.5
2017-Sep-04 13:30N 37°09' E 023°37'5 9.4
2017-Sep-04 13:01N 37°06' E 023°42'  

Dump ship's entire track history